createdAt,value
2022-11-15T00:02:15.342Z,7.03
2022-11-15T00:04:46.458Z,7.32
2022-11-15T00:07:40.492Z,7.15
2022-11-15T00:10:09.708Z,7.25
2022-11-15T00:12:41.463Z,7.20
2022-11-15T00:15:15.119Z,7.26
2022-11-15T00:17:46.300Z,7.10
2022-11-15T00:20:18.105Z,6.99
2022-11-15T00:22:49.368Z,7.05
2022-11-15T00:25:20.293Z,7.27
2022-11-15T00:27:52.945Z,7.02
2022-11-15T00:30:26.517Z,7.04
2022-11-15T00:32:58.239Z,7.14
2022-11-15T00:35:29.445Z,7.34
2022-11-15T00:38:00.783Z,7.31
2022-11-15T00:40:32.142Z,7.28
2022-11-15T00:43:03.810Z,7.18
2022-11-15T00:45:38.541Z,7.08
2022-11-15T00:48:11.747Z,7.08
2022-11-15T00:50:44.352Z,7.29
2022-11-15T00:53:32.392Z,7.21
2022-11-15T00:56:05.041Z,6.96
2022-11-15T00:58:37.660Z,7.21
2022-11-15T01:01:18.452Z,7.25
2022-11-15T01:03:51.263Z,7.09
2022-11-15T01:06:23.621Z,7.14
2022-11-15T01:08:56.384Z,7.00
2022-11-15T01:11:29.023Z,6.98
2022-11-15T01:14:02.221Z,6.79
2022-11-15T01:16:37.571Z,6.99
2022-11-15T01:19:10.691Z,6.81
2022-11-15T01:21:56.812Z,6.92
2022-11-15T01:24:28.296Z,6.77
2022-11-15T01:26:59.324Z,6.89
2022-11-15T01:29:30.854Z,6.82
2022-11-15T01:32:04.750Z,6.85
2022-11-15T01:34:38.047Z,6.97
2022-11-15T01:37:09.361Z,7.07
2022-11-15T01:39:40.827Z,6.83
2022-11-15T01:42:17.753Z,6.87
2022-11-15T01:44:54.551Z,6.65
2022-11-15T01:47:46.262Z,6.50
2022-11-15T01:50:24.562Z,6.58
2022-11-15T01:53:43.863Z,6.62
2022-11-15T01:56:24.523Z,6.66
2022-11-15T01:59:03.242Z,6.59
2022-11-15T02:01:43.803Z,6.60
2022-11-15T02:04:23.375Z,6.80
2022-11-15T02:06:56.253Z,6.73
2022-11-15T02:09:28.903Z,6.77
2022-11-15T02:12:03.750Z,6.87
2022-11-15T02:14:42.231Z,6.77
2022-11-15T02:20:40.610Z,6.63
2022-11-15T02:23:41.323Z,6.66
2022-11-15T02:26:45.800Z,6.61
2022-11-15T02:29:25.483Z,6.57
2022-11-15T02:32:05.455Z,6.54
2022-11-15T02:34:51.901Z,6.54
2022-11-15T02:37:32.758Z,6.61
2022-11-15T02:40:13.819Z,6.48
2022-11-15T02:43:08.306Z,6.74
2022-11-15T02:45:57.077Z,6.73
2022-11-15T02:48:32.114Z,6.48
2022-11-15T02:51:05.282Z,6.68
2022-11-15T02:53:36.757Z,6.34
2022-11-15T02:56:09.017Z,6.44
2022-11-15T02:59:02.537Z,6.30
2022-11-15T03:01:46.711Z,6.37
2022-11-15T03:04:33.601Z,6.32
2022-11-15T03:07:15.036Z,6.47
2022-11-15T03:09:55.989Z,6.68
2022-11-15T03:12:33.304Z,6.64
2022-11-15T03:15:09.868Z,6.62
2022-11-15T03:17:47.105Z,6.73
2022-11-15T03:20:23.047Z,6.59
2022-11-15T03:22:57.117Z,6.59
2022-11-15T03:25:32.337Z,6.43
2022-11-15T03:28:40.105Z,6.37
2022-11-15T03:31:28.704Z,6.41
2022-11-15T03:34:20.570Z,6.51
2022-11-15T03:36:56.982Z,6.53
2022-11-15T03:39:32.713Z,6.56
2022-11-15T03:42:16.593Z,6.42
2022-11-15T03:44:57.585Z,6.28
2022-11-15T03:47:36.014Z,6.43
2022-11-15T03:50:15.463Z,6.70
2022-11-15T03:52:53.204Z,6.64
2022-11-15T03:55:27.106Z,6.64
2022-11-15T03:58:03.034Z,6.73
2022-11-15T04:00:36.922Z,7.04
2022-11-15T04:03:10.692Z,6.63
2022-11-15T04:05:43.377Z,6.71
2022-11-15T04:08:17.725Z,6.91
2022-11-15T04:13:43.286Z,6.67
2022-11-15T04:16:15.061Z,6.64
2022-11-15T04:19:06.629Z,6.80
2022-11-15T04:21:50.815Z,6.74
2022-11-15T04:24:24.911Z,6.77
2022-11-15T04:26:57.068Z,6.59
2022-11-15T04:29:41.618Z,6.83
2022-11-15T04:32:16.501Z,6.62
2022-11-15T04:34:48.186Z,6.63
2022-11-15T04:37:20.123Z,6.77
2022-11-15T04:39:54.340Z,6.70
2022-11-15T04:42:26.322Z,6.69
2022-11-15T04:44:57.948Z,6.62
2022-11-15T04:47:30.840Z,6.88
2022-11-15T04:50:02.396Z,6.80
2022-11-15T04:52:34.430Z,6.66
2022-11-15T04:55:09.254Z,6.56
2022-11-15T04:57:43.987Z,6.67
2022-11-15T05:00:18.801Z,6.83
2022-11-15T05:03:03.173Z,6.56
2022-11-15T05:05:34.690Z,6.79
2022-11-15T05:08:08.143Z,6.57
2022-11-15T05:10:44.074Z,6.48
2022-11-15T05:13:17.895Z,6.49
2022-11-15T05:16:19.133Z,6.52
2022-11-15T05:18:58.182Z,6.52
2022-11-15T05:21:31.645Z,6.72
2022-11-15T05:24:05.686Z,6.74
2022-11-15T05:27:05.604Z,6.67
2022-11-15T05:29:39.304Z,6.63
2022-11-15T05:32:28.552Z,6.55
2022-11-15T05:35:02.354Z,7.07
2022-11-15T05:37:35.363Z,6.91
2022-11-15T05:40:10.394Z,7.05
2022-11-15T05:45:37.113Z,6.25
2022-11-15T05:48:13.576Z,6.44
2022-11-15T05:50:50.155Z,6.79
2022-11-15T05:53:27.325Z,6.83
2022-11-15T05:55:59.291Z,6.81
2022-11-15T05:58:35.499Z,6.64
2022-11-15T06:01:07.496Z,6.47
2022-11-15T06:03:39.086Z,6.39
2022-11-15T06:06:15.187Z,6.54
2022-11-15T06:08:49.078Z,6.49
2022-11-15T06:11:21.167Z,6.53
2022-11-15T06:13:55.885Z,6.55
2022-11-15T06:16:28.090Z,6.46
2022-11-15T06:19:00.142Z,6.32
2022-11-15T06:21:31.975Z,6.70
2022-11-15T06:24:03.578Z,6.56
2022-11-15T06:26:36.015Z,6.59
2022-11-15T06:29:10.265Z,6.61
2022-11-15T06:31:41.982Z,6.68
2022-11-15T06:34:13.769Z,6.71
2022-11-15T06:36:45.759Z,6.68
2022-11-15T06:39:17.234Z,6.58
2022-11-15T06:41:49.271Z,6.65
2022-11-15T06:44:23.661Z,6.55
2022-11-15T06:46:55.564Z,6.63
2022-11-15T06:49:27.073Z,6.59
2022-11-15T06:51:58.708Z,6.80
2022-11-15T06:54:30.161Z,6.81
2022-11-15T06:57:01.813Z,6.84
2022-11-15T06:59:40.296Z,6.84
2022-11-15T07:02:16.984Z,7.15
2022-11-15T07:04:48.405Z,6.91
2022-11-15T07:07:20.224Z,6.67
2022-11-15T07:09:51.889Z,6.68
2022-11-15T07:12:24.714Z,6.83
2022-11-15T07:14:58.471Z,7.14
2022-11-15T07:17:30.353Z,6.98
2022-11-15T07:20:01.719Z,6.92
2022-11-15T07:22:33.484Z,7.10
2022-11-15T07:25:05.008Z,7.03
2022-11-15T07:27:36.963Z,7.03
2022-11-15T07:30:14.495Z,7.06
2022-11-15T07:32:47.751Z,7.48
2022-11-15T07:35:18.915Z,7.27
2022-11-15T07:38:19.429Z,7.19
2022-11-15T07:40:51.335Z,7.08
2022-11-15T07:43:23.265Z,7.20
2022-11-15T07:45:59.561Z,7.33
2022-11-15T07:48:42.631Z,7.49
2022-11-15T07:51:17.640Z,7.52
2022-11-15T07:53:49.687Z,7.64
2022-11-15T07:56:22.428Z,7.72
2022-11-15T07:58:54.545Z,7.81
2022-11-15T08:01:29.328Z,8.10
2022-11-15T08:04:01.553Z,8.18
2022-11-15T08:06:33.180Z,8.48
2022-11-15T08:09:05.449Z,8.11
2022-11-15T08:11:36.890Z,8.21
2022-11-15T08:14:08.921Z,8.23
2022-11-15T08:16:42.980Z,8.13
2022-11-15T08:19:14.806Z,8.11
2022-11-15T08:21:46.250Z,8.31
2022-11-15T08:24:18.090Z,8.49
2022-11-15T08:26:49.891Z,8.61
2022-11-15T08:29:21.759Z,8.61
2022-11-15T08:31:55.869Z,8.53
2022-11-15T08:34:27.687Z,8.56
2022-11-15T08:36:59.310Z,8.60
2022-11-15T08:39:31.189Z,8.72
2022-11-15T08:42:03.565Z,8.71
2022-11-15T08:44:35.841Z,8.63
2022-11-15T08:47:10.276Z,9.40
2022-11-15T08:49:42.498Z,9.41
2022-11-15T08:52:14.210Z,9.36
2022-11-15T08:54:45.986Z,9.13
2022-11-15T08:57:17.668Z,9.25
2022-11-15T08:59:49.704Z,9.58
2022-11-15T09:02:25.466Z,9.62
2022-11-15T09:05:00.703Z,9.96
2022-11-15T09:07:33.354Z,9.91
2022-11-15T09:10:05.936Z,9.84
2022-11-15T09:12:37.313Z,10.14
2022-11-15T09:15:10.667Z,10.10
2022-11-15T09:17:45.567Z,10.29
2022-11-15T09:20:19.498Z,10.50
2022-11-15T09:22:51.036Z,10.66
2022-11-15T09:25:23.084Z,10.51
2022-11-15T09:27:54.303Z,10.56
2022-11-15T09:30:26.412Z,10.98
2022-11-15T09:33:00.905Z,10.88
2022-11-15T09:35:32.615Z,10.73
2022-11-15T09:38:04.103Z,10.75
2022-11-15T09:40:40.299Z,11.21
2022-11-15T09:43:31.871Z,11.31
2022-11-15T09:46:14.148Z,11.34
2022-11-15T09:49:01.553Z,11.32
2022-11-15T09:51:36.675Z,11.44
2022-11-15T09:54:50.903Z,11.52
2022-11-15T09:57:16.677Z,11.55
2022-11-15T10:00:30.707Z,11.74
2022-11-15T10:03:18.295Z,11.70
2022-11-15T10:05:58.263Z,11.81
2022-11-15T10:08:41.743Z,11.65
2022-11-15T10:11:36.866Z,11.60
2022-11-15T10:14:15.678Z,11.77
2022-11-15T10:17:18.755Z,11.89
2022-11-15T10:20:06.283Z,12.13
2022-11-15T10:22:46.389Z,11.84
2022-11-15T10:25:24.030Z,12.11
2022-11-15T10:27:59.074Z,12.29
2022-11-15T10:30:38.885Z,12.45
2022-11-15T10:33:28.428Z,12.23
2022-11-15T10:36:26.963Z,12.66
2022-11-15T10:39:02.564Z,12.65
2022-11-15T10:41:41.094Z,12.76
2022-11-15T10:44:28.242Z,12.71
2022-11-15T10:47:29.009Z,12.82
2022-11-15T10:50:04.587Z,12.91
2022-11-15T10:52:40.582Z,12.83
2022-11-15T10:55:34.547Z,12.86
2022-11-15T10:58:10.655Z,13.09
2022-11-15T11:00:43.884Z,12.79
2022-11-15T11:03:36.392Z,12.90
2022-11-15T11:06:14.244Z,13.02
2022-11-15T11:08:59.732Z,13.08
2022-11-15T11:11:52.611Z,13.29
2022-11-15T11:14:29.175Z,13.23
2022-11-15T11:17:10.036Z,13.32
2022-11-15T11:20:01.116Z,13.35
2022-11-15T11:22:43.924Z,13.55
2022-11-15T11:25:28.971Z,13.41
2022-11-15T11:28:19.087Z,13.67
2022-11-15T11:31:11.011Z,13.47
2022-11-15T11:33:53.290Z,13.58
2022-11-15T11:36:31.987Z,13.42
2022-11-15T11:39:26.643Z,13.72
2022-11-15T11:42:08.294Z,13.48
2022-11-15T11:44:57.572Z,13.79
2022-11-15T11:47:35.681Z,13.67
2022-11-15T11:50:18.899Z,13.53
2022-11-15T11:53:03.952Z,13.93
2022-11-15T11:55:41.257Z,13.82
2022-11-15T11:58:18.742Z,13.98
2022-11-15T12:01:00.566Z,13.83
2022-11-15T12:03:38.605Z,13.80
2022-11-15T12:06:23.652Z,13.67
2022-11-15T12:09:05.048Z,13.67
2022-11-15T12:11:48.155Z,13.80
2022-11-15T12:14:31.726Z,13.91
2022-11-15T12:17:06.233Z,13.76
2022-11-15T12:19:40.933Z,13.76
2022-11-15T12:22:22.535Z,13.69
2022-11-15T12:25:00.684Z,13.78
2022-11-15T12:27:40.961Z,13.76
2022-11-15T12:30:17.258Z,13.81
2022-11-15T12:33:00.477Z,13.75
2022-11-15T12:35:38.205Z,13.83
2022-11-15T12:38:14.426Z,13.83
2022-11-15T12:41:19.168Z,13.97
2022-11-15T12:43:52.382Z,14.07
2022-11-15T12:46:48.045Z,14.02
2022-11-15T12:49:50.900Z,14.17
2022-11-15T12:52:23.555Z,13.96
2022-11-15T12:55:07.665Z,13.86
2022-11-15T12:57:44.524Z,13.96
2022-11-15T13:00:43.229Z,14.05
2022-11-15T13:03:33.133Z,13.95
2022-11-15T13:06:33.221Z,14.07
2022-11-15T13:09:05.372Z,14.22
2022-11-15T13:11:53.812Z,14.25
2022-11-15T13:14:46.036Z,14.12
2022-11-15T13:17:35.139Z,14.30
2022-11-15T13:20:27.338Z,14.08
2022-11-15T13:23:14.359Z,14.06
2022-11-15T13:26:17.474Z,14.09
2022-11-15T13:28:53.699Z,14.14
2022-11-15T13:31:32.336Z,14.21
2022-11-15T13:34:17.933Z,14.41
2022-11-15T13:36:59.907Z,14.39
2022-11-15T13:39:39.263Z,14.35
2022-11-15T13:42:20.570Z,14.06
2022-11-15T13:45:03.021Z,14.24
2022-11-15T13:47:37.045Z,14.40
2022-11-15T13:50:12.466Z,14.40
2022-11-15T13:52:50.608Z,14.05
2022-11-15T13:55:30.245Z,13.99
2022-11-15T13:58:07.605Z,14.24
2022-11-15T14:00:44.890Z,14.29
2022-11-15T14:03:24.764Z,14.32
2022-11-15T14:06:14.645Z,14.36
2022-11-15T14:09:05.669Z,14.31
2022-11-15T14:11:42.167Z,14.42
2022-11-15T14:14:18.863Z,14.32
2022-11-15T14:16:53.638Z,14.20
2022-11-15T14:19:41.085Z,14.00
2022-11-15T14:22:27.485Z,13.85
2022-11-15T14:25:20.303Z,13.83
2022-11-15T14:28:16.487Z,14.00
2022-11-15T14:30:51.534Z,13.89
2022-11-15T14:33:26.697Z,13.71
2022-11-15T14:35:59.591Z,13.57
2022-11-15T14:38:31.908Z,13.57
2022-11-15T14:41:04.265Z,13.61
2022-11-15T14:43:37.986Z,13.43
2022-11-15T14:46:09.752Z,13.44
2022-11-15T14:48:40.962Z,13.64
2022-11-15T14:51:17.302Z,13.52
2022-11-15T14:53:50.305Z,13.72
2022-11-15T14:56:21.922Z,13.36
2022-11-15T14:58:56.138Z,13.33
2022-11-15T15:01:30.200Z,13.45
2022-11-15T15:04:01.444Z,13.38
2022-11-15T15:06:33.265Z,13.34
2022-11-15T15:09:05.752Z,13.31
2022-11-15T15:11:37.305Z,13.07
2022-11-15T15:14:12.646Z,13.28
2022-11-15T15:16:44.468Z,13.23
2022-11-15T15:19:15.803Z,12.83
2022-11-15T15:21:47.428Z,12.88
2022-11-15T15:24:19.316Z,12.68
2022-11-15T15:26:51.542Z,12.82
2022-11-15T15:29:25.931Z,12.83
2022-11-15T15:31:57.682Z,12.72
2022-11-15T15:34:29.175Z,12.78
2022-11-15T15:37:27.234Z,12.69
2022-11-15T15:40:00.531Z,12.63
2022-11-15T15:42:32.671Z,12.74
2022-11-15T15:45:07.249Z,12.67
2022-11-15T15:47:39.541Z,12.57
2022-11-15T15:50:25.173Z,12.57
2022-11-15T15:52:59.295Z,12.59
2022-11-15T15:55:31.919Z,12.56
2022-11-15T15:58:04.195Z,12.49
2022-11-15T16:00:38.516Z,12.40
2022-11-15T16:03:10.505Z,12.38
2022-11-15T16:05:42.788Z,12.20
2022-11-15T16:08:22.858Z,12.21
2022-11-15T16:10:54.767Z,11.83
2022-11-15T16:13:26.650Z,11.91
2022-11-15T16:16:00.794Z,11.93
2022-11-15T16:18:34.607Z,12.12
2022-11-15T16:21:06.168Z,11.89
2022-11-15T16:23:37.948Z,11.94
2022-11-15T16:26:22.207Z,11.73
2022-11-15T16:28:53.547Z,11.57
2022-11-15T16:31:27.597Z,11.78
2022-11-15T16:34:01.589Z,11.78
2022-11-15T16:36:36.470Z,11.95
2022-11-15T16:39:08.378Z,11.72
2022-11-15T16:41:39.790Z,11.55
2022-11-15T16:44:11.303Z,11.52
2022-11-15T16:46:54.584Z,11.46
2022-11-15T16:49:26.423Z,11.51
2022-11-15T16:51:57.929Z,11.29
2022-11-15T16:54:29.814Z,11.10
2022-11-15T16:57:01.111Z,10.97
2022-11-15T16:59:38.159Z,11.12
2022-11-15T17:02:15.969Z,11.15
2022-11-15T17:04:50.528Z,11.12
2022-11-15T17:07:21.803Z,10.94
2022-11-15T17:09:53.571Z,10.70
2022-11-15T17:12:24.940Z,10.55
2022-11-15T17:14:56.520Z,10.92
2022-11-15T17:17:30.535Z,10.78
2022-11-15T17:20:05.396Z,10.65
2022-11-15T17:22:36.545Z,10.39
2022-11-15T17:25:09.369Z,10.41
2022-11-15T17:27:40.530Z,10.25
2022-11-15T17:30:15.608Z,10.33
2022-11-15T17:32:50.510Z,10.30
2022-11-15T17:35:22.233Z,10.24
2022-11-15T17:37:53.730Z,10.37
2022-11-15T17:40:25.628Z,10.28
2022-11-15T17:42:57.602Z,10.15
2022-11-15T17:45:30.474Z,9.80
2022-11-15T17:48:04.429Z,9.69
2022-11-15T17:50:36.383Z,9.71
2022-11-15T17:53:07.876Z,9.71
2022-11-15T17:55:39.629Z,9.74
2022-11-15T17:58:11.443Z,9.89
2022-11-15T18:00:43.003Z,9.75
2022-11-15T18:03:18.298Z,9.74
2022-11-15T18:05:50.245Z,9.84
2022-11-15T18:08:24.408Z,9.65
2022-11-15T18:11:08.924Z,9.75
2022-11-15T18:13:42.218Z,9.91
2022-11-15T18:16:17.393Z,9.89
2022-11-15T18:18:52.028Z,9.98
2022-11-15T18:21:25.834Z,9.76
2022-11-15T18:23:59.789Z,9.83
2022-11-15T18:26:34.182Z,9.64
2022-11-15T18:29:07.732Z,9.87
2022-11-15T18:31:43.590Z,9.81
2022-11-15T18:34:22.072Z,9.82
2022-11-15T18:36:56.065Z,10.05
2022-11-15T18:39:28.983Z,9.90
2022-11-15T18:42:02.453Z,9.84
2022-11-15T18:44:37.895Z,9.52
2022-11-15T18:47:11.425Z,9.59
2022-11-15T18:49:47.518Z,9.62
2022-11-15T18:52:21.332Z,9.34
2022-11-15T18:54:54.167Z,9.54
2022-11-15T18:57:27.455Z,9.62
2022-11-15T19:00:01.163Z,9.60
2022-11-15T19:02:34.240Z,9.22
2022-11-15T19:05:10.195Z,9.02
2022-11-15T19:07:43.320Z,9.45
2022-11-15T19:10:15.814Z,9.03
2022-11-15T19:12:49.934Z,9.15
2022-11-15T19:15:22.418Z,9.15
2022-11-15T19:17:55.550Z,9.27
2022-11-15T19:20:30.695Z,9.51
2022-11-15T19:23:03.934Z,9.06
2022-11-15T19:25:37.016Z,9.03
2022-11-15T19:28:10.053Z,8.82
2022-11-15T19:30:42.720Z,8.90
2022-11-15T19:33:15.696Z,9.07
2022-11-15T19:35:51.135Z,9.20
2022-11-15T19:38:24.247Z,8.92
2022-11-15T19:41:02.700Z,9.09
2022-11-15T19:43:36.275Z,9.02
2022-11-15T19:46:10.133Z,8.70
2022-11-15T19:48:43.356Z,8.22
2022-11-15T19:51:22.003Z,8.54
2022-11-15T19:54:01.818Z,8.25
2022-11-15T19:56:34.320Z,8.40
2022-11-15T19:59:08.136Z,8.32
2022-11-15T20:01:40.951Z,8.23
2022-11-15T20:04:13.994Z,8.14
2022-11-15T20:06:49.170Z,8.20
2022-11-15T20:09:22.174Z,8.46
2022-11-15T20:11:54.756Z,8.61
2022-11-15T20:14:29.833Z,8.43
2022-11-15T20:17:02.295Z,8.36
2022-11-15T20:19:35.421Z,8.19
2022-11-15T20:22:11.181Z,7.99
2022-11-15T20:24:44.335Z,8.07
2022-11-15T20:27:16.758Z,8.15
2022-11-15T20:30:06.957Z,8.05
2022-11-15T20:32:39.575Z,8.00
2022-11-15T20:35:13.334Z,8.26
2022-11-15T20:37:48.934Z,8.56
2022-11-15T20:40:22.221Z,8.30
2022-11-15T20:42:56.922Z,8.32
2022-11-15T20:45:30.034Z,8.12
2022-11-15T20:48:02.772Z,7.97
2022-11-15T20:50:42.519Z,8.03
2022-11-15T20:53:20.474Z,8.30
2022-11-15T20:55:55.473Z,8.43
2022-11-15T20:58:30.514Z,8.02
2022-11-15T21:01:04.511Z,8.25
2022-11-15T21:03:38.057Z,8.44
2022-11-15T21:06:12.173Z,8.12
2022-11-15T21:08:59.721Z,8.20
2022-11-15T21:11:45.123Z,8.15
2022-11-15T21:14:18.018Z,8.47
2022-11-15T21:16:51.569Z,8.56
2022-11-15T21:19:29.063Z,8.42
2022-11-15T21:22:05.637Z,8.29
2022-11-15T21:24:41.197Z,8.47
2022-11-15T21:27:22.786Z,7.91
2022-11-15T21:29:56.157Z,8.13
2022-11-15T21:32:29.594Z,7.84
2022-11-15T21:35:02.725Z,8.15
2022-11-15T21:37:36.417Z,7.80
2022-11-15T21:40:13.459Z,7.75
2022-11-15T21:42:47.541Z,7.96
2022-11-15T21:45:20.795Z,7.81
2022-11-15T21:47:54.184Z,7.88
2022-11-15T21:50:27.060Z,7.60
2022-11-15T21:53:00.679Z,7.95
2022-11-15T21:55:36.316Z,7.97
2022-11-15T21:58:09.719Z,8.13
2022-11-15T22:00:54.699Z,7.78
2022-11-15T22:03:28.297Z,7.40
2022-11-15T22:06:01.224Z,7.08
2022-11-15T22:08:34.817Z,7.38
2022-11-15T22:11:10.512Z,7.43
2022-11-15T22:13:43.741Z,7.48
2022-11-15T22:16:16.178Z,7.43
2022-11-15T22:18:49.705Z,7.30
2022-11-15T22:21:23.315Z,7.53
2022-11-15T22:23:56.616Z,7.55
2022-11-15T22:26:32.075Z,7.44
2022-11-15T22:29:05.534Z,7.16
2022-11-15T22:31:38.087Z,7.49
2022-11-15T22:34:11.555Z,7.54
2022-11-15T22:37:13.176Z,7.45
2022-11-15T22:39:41.057Z,7.56
2022-11-15T22:42:22.204Z,7.53
2022-11-15T22:44:56.799Z,7.57
2022-11-15T22:47:29.758Z,7.26
2022-11-15T22:50:03.172Z,7.39
2022-11-15T22:52:35.893Z,7.26
2022-11-15T22:55:10.296Z,7.23
2022-11-15T22:57:45.777Z,7.02
2022-11-15T23:00:20.502Z,7.01
2022-11-15T23:02:54.598Z,6.96
2022-11-15T23:05:27.855Z,6.85
2022-11-15T23:08:00.575Z,6.78
2022-11-15T23:10:45.875Z,6.77
2022-11-15T23:13:21.434Z,6.70
2022-11-15T23:16:07.661Z,6.95
2022-11-15T23:18:42.154Z,6.82
2022-11-15T23:21:37.555Z,6.66
2022-11-15T23:24:09.837Z,6.90
2022-11-15T23:26:43.797Z,6.79
2022-11-15T23:29:20.771Z,7.06
2022-11-15T23:32:11.976Z,7.06
2022-11-15T23:34:46.458Z,7.07
2022-11-15T23:37:19.855Z,6.71
2022-11-15T23:39:52.355Z,6.79
2022-11-15T23:42:25.616Z,6.90
2022-11-15T23:45:00.994Z,6.87
2022-11-15T23:47:34.157Z,6.67
2022-11-15T23:50:36.355Z,6.59
2022-11-15T23:53:09.659Z,6.39
2022-11-15T23:55:42.615Z,6.38
2022-11-15T23:58:15.857Z,6.78
